Portada
METAR-TAF:

METAR-TAF

Aeropuertos :

Aeropuerto Internacional de Dzaoudzi Pamandzi

Dzaoudzi, Mayotte

latitud: 12-48S, longitud: 045-17E, altitud: 8 m

Observación

El informe se hizo hace 20 minutos, a las 20:00 UTC
Viento 5 kt del oeste
Temperatura 26°C
Humedad 79%
Presión 1016 hPa
Visibilidad 10 km o más
sin nubes por debajo de 1500 m y sin presencia de cumulonimbus.

METAR: FMCZ 262000Z AUTO 26005KT CAVOK 26/22 Q1016 NOSIG

Hora: 23:20 (20:20 UTC)

Pronóstico

El informe se hizo hace 3 horas y 20 minutos, a las 17:00 UTC
Pronóstico válido del 26 a las 18 UTC al 27 a las 18 UTC
Viento 5 kt del este-sureste
Visibilidad 10 km o más
Escasas nubes a una altura de 2600 ft

TAF: FMCZ 261700Z 2618/2718 12005KT 9999 FEW026

Observaciones y pronósticos meteorológicos de más de 4000 aeropuertos (mensajes METAR y TAF).

Los puntos amarillos y rojos representan las estaciones disponibles.

Ponga el ratón en el punto deseado para ver el nombre de la estación.

Haga clic para ver las observaciones y los pronósticos meteorológicos.

Para cambiar el mapa : haga clic en los botones verdes con una cruz de color negro para hacer un zoom, en el botón verde con un guión para alejar o en las flechas verdes para mapas adyacentes.


METAR-TAF: